Chadstone Weather > Observations for 01/08/21

Select Day:



Observations
Time Temp Hum DP Wind Gust Dir Rain >9am Press
C % C kph kph mm hPa
09:00 9.1 95 8.3 0.1 2.5 NW 0.0 998.8
09:10 9.4 95 8.6 0.1 2.5 NNW 0.0 998.9
09:20 9.7 95 8.9 0.1 2.5 N 0.0 998.8
09:30 10.2 94 9.3 0.6 9.7 WNW 0.0 999.0
09:40 10.4 94 9.5 2.9 9.7 W 0.0 998.9
09:50 10.8 94 9.9 3.2 9.7 WNW 0.0 999.0
10:00 11.1 92 9.9 2.6 11.2 WNW 0.0 999.0
10:10 11.5 90 9.9 2.0 11.2 WNW 0.0 999.0
10:20 11.7 87 9.6 3.1 12.2 W 0.0 999.1
10:30 12.0 83 9.2 6.4 17.3 W 0.0 999.2
10:40 12.3 81 9.1 5.3 17.3 W 0.0 999.3
10:50 12.4 77 8.5 5.0 14.8 WNW 0.0 999.3
11:00 12.7 75 8.4 4.0 14.8 WNW 0.0 999.4
11:10 13.0 73 8.3 7.5 18.4 WSW 0.0 999.3
11:20 13.2 71 8.1 5.7 15.8 WSW 0.0 999.2
11:30 13.3 68 7.5 9.3 18.4 W 0.0 999.3
11:40 13.4 67 7.4 9.3 15.8 W 0.0 999.2
11:50 13.6 67 7.6 9.4 18.4 W 0.0 999.1
12:00 13.9 67 7.9 7.4 18.4 WNW 0.0 999.1
12:10 14.1 64 7.4 7.1 18.4 WNW 0.0 998.9
12:20 14.3 64 7.6 5.7 17.3 W 0.0 998.7
12:30 14.5 63 7.5 7.7 15.8 WNW 0.0 998.7
12:40 14.7 60 7.0 8.0 14.8 W 0.0 998.8
12:50 14.8 60 7.1 6.3 19.4 W 0.0 998.8
13:00 14.7 58 6.5 8.5 19.4 SW 0.0 998.7
13:10 14.7 57 6.3 8.3 17.3 W 0.0 998.7
13:20 15.2 56 6.5 6.8 17.3 SW 0.0 998.8
13:30 15.3 55 6.3 6.2 17.3 W 0.0 998.8
13:40 15.5 54 6.2 7.0 19.4 SW 0.0 998.8
13:50 15.3 54 6.1 5.6 12.2 WSW 0.0 998.8
14:00 15.4 53 5.9 5.4 18.4 WSW 0.0 998.8
14:10 15.3 53 5.8 5.6 14.8 W 0.0 999.1
14:20 15.1 52 5.3 5.5 14.8 NW 0.0 999.1
14:30 15.0 53 5.5 4.7 12.2 SW 0.0 999.3
14:40 15.2 53 5.7 5.6 14.8 WSW 0.0 999.3
14:50 15.1 53 5.6 4.9 12.2 WSW 0.0 999.4
15:00 15.3 52 5.5 4.8 14.8 W 0.0 999.5
15:10 15.4 51 5.3 7.8 17.3 SW 0.0 999.4
15:20 15.4 51 5.3 3.2 9.7 WNW 0.0 999.7
15:30 15.3 52 5.5 3.5 12.2 WSW 0.0 999.6
15:40 14.9 54 5.7 2.9 11.2 WSW 0.0 999.7
15:50 14.5 55 5.6 2.3 9.7 SSW 0.0 999.8
16:00 14.3 55 5.4 2.6 9.7 WSW 0.0 999.9
16:10 14.2 56 5.6 2.0 7.2 SSW 0.0 1000.0
16:20 14.0 56 5.4 2.8 8.6 W 0.0 1000.0
16:30 14.0 57 5.6 2.5 11.2 SW 0.0 1000.2
16:40 13.8 59 5.9 1.5 6.1 SW 0.0 1000.4
16:50 13.6 60 6.0 2.8 11.2 W 0.0 1000.6
17:00 13.4 61 6.0 1.7 8.6 SW 0.0 1000.6
17:10 13.1 63 6.2 2.2 8.6 SW 0.0 1000.7
17:20 12.9 64 6.3 1.3 6.1 SW 0.0 1000.8
17:30 12.6 64 6.0 1.0 3.6 WSW 0.0 1000.9
17:40 12.4 65 6.0 0.6 3.6 WSW 0.0 1000.9
17:50 12.0 66 5.8 0.3 3.6 SW 0.0 1001.1
18:00 11.8 68 6.1 0.2 2.5 SW 0.0 1001.1
18:10 11.5 69 6.0 1.8 5.0 W 0.0 1001.4
18:20 11.3 70 6.0 0.4 3.6 NW 0.0 1001.3
18:30 11.3 71 6.2 0.8 3.6 N 0.0 1001.4
18:40 11.0 71 5.9 0.0 0.0 N 0.0 1001.4
18:50 10.8 73 6.2 0.3 2.5 SSW 0.0 1001.6
19:00 10.6 73 6.0 0.1 2.5 N 0.0 1001.7
19:10 10.3 74 5.9 0.2 3.6 N 0.0 1001.7
19:20 10.2 74 5.8 0.0 1.1 N 0.0 1001.6
19:30 10.0 75 5.8 0.0 1.1 N 0.0 1001.7
19:40 9.8 76 5.8 0.3 2.5 NW 0.0 1001.9
19:50 9.8 77 6.0 0.0 1.1 NW 0.0 1002.0
20:00 9.8 78 6.1 0.6 3.6 SE 0.0 1001.9
20:10 9.6 79 6.1 0.8 2.5 W 0.0 1002.1
20:20 9.5 80 6.2 0.2 2.5 W 0.0 1002.2
20:30 9.2 80 5.9 0.3 2.5 NNE 0.0 1002.3
20:40 9.1 80 5.8 0.9 3.6 N 0.0 1002.4
20:50 9.0 81 5.9 0.2 3.6 N 0.0 1002.5
21:00 9.0 81 5.9 3.0 7.2 N 0.0 1002.6
21:10 9.1 82 6.2 2.0 6.1 N 0.0 1002.7
21:20 9.0 82 6.1 1.0 3.6 N 0.0 1002.7
21:30 8.9 83 6.2 1.3 5.0 N 0.0 1002.9
21:40 8.9 83 6.2 2.6 6.1 NW 0.0 1003.1
21:50 8.8 83 6.1 2.0 6.1 NNW 0.0 1003.1
22:00 8.8 82 5.9 3.3 6.1 N 0.0 1003.1
22:10 8.8 81 5.7 2.6 6.1 N 0.0 1003.2
22:20 8.7 81 5.6 1.3 5.0 N 0.0 1003.1
22:30 8.7 81 5.6 2.7 6.1 N 0.0 1003.3
22:40 8.7 80 5.4 2.2 6.1 N 0.0 1003.3
22:50 8.5 80 5.2 2.3 6.1 N 0.0 1003.4
23:00 8.5 80 5.2 1.9 5.0 NNE 0.0 1003.5
23:10 8.4 80 5.2 1.2 5.0 N 0.0 1003.3
23:20 8.3 79 4.9 1.6 6.1 NNW 0.0 1003.4
23:30 8.2 79 4.8 1.4 5.0 N 0.0 1003.3
23:40 8.1 79 4.7 1.6 5.0 NNE 0.0 1003.2
23:50 8.0 79 4.6 2.1 5.0 NNW 0.0 1003.3